createdAt,value
2023-05-14T00:02:33.957Z,64.17
2023-05-14T00:07:32.952Z,64.46
2023-05-14T00:12:32.057Z,64.79
2023-05-14T00:17:31.458Z,65.10
2023-05-14T00:22:31.142Z,65.27
2023-05-14T00:27:30.139Z,65.64
2023-05-14T00:32:30.031Z,65.94
2023-05-14T00:37:29.861Z,66.05
2023-05-14T00:42:29.149Z,66.14
2023-05-14T00:47:28.581Z,66.25
2023-05-14T00:52:28.849Z,66.37
2023-05-14T00:57:28.514Z,66.58
2023-05-14T01:02:28.385Z,66.80
2023-05-14T01:07:38.970Z,66.93
2023-05-14T01:12:45.390Z,67.06
2023-05-14T01:17:51.883Z,67.21
2023-05-14T01:22:51.297Z,67.31
2023-05-14T01:28:02.583Z,67.45
2023-05-14T01:33:07.731Z,67.57
2023-05-14T01:38:12.561Z,67.59
2023-05-14T01:43:12.138Z,67.79
2023-05-14T01:48:11.384Z,67.93
2023-05-14T01:53:11.018Z,68.01
2023-05-14T01:58:10.399Z,68.13
2023-05-14T02:03:09.381Z,68.32
2023-05-14T02:08:09.306Z,68.46
2023-05-14T02:13:09.650Z,68.52
2023-05-14T02:18:08.915Z,68.71
2023-05-14T02:23:08.398Z,68.91
2023-05-14T02:28:08.139Z,69.01
2023-05-14T02:33:07.678Z,69.09
2023-05-14T02:38:07.965Z,69.14
2023-05-14T02:43:07.012Z,69.28
2023-05-14T02:48:07.002Z,69.43
2023-05-14T02:53:06.376Z,69.60
2023-05-14T02:58:05.374Z,69.83
2023-05-14T03:03:04.050Z,69.97
2023-05-14T03:08:04.029Z,70.13
2023-05-14T03:13:03.292Z,70.33
2023-05-14T03:18:01.945Z,70.54
2023-05-14T03:23:00.783Z,70.67
2023-05-14T03:27:59.831Z,70.70
2023-05-14T03:32:59.135Z,70.72
2023-05-14T03:37:59.592Z,70.87
2023-05-14T03:42:59.161Z,71.06
2023-05-14T03:47:58.165Z,70.94
2023-05-14T03:52:58.193Z,70.68
2023-05-14T03:57:57.318Z,70.25
2023-05-14T04:02:56.476Z,69.96
2023-05-14T04:07:58.373Z,69.82
2023-05-14T04:13:00.208Z,69.78
2023-05-14T04:18:03.493Z,69.70
2023-05-14T04:23:02.594Z,69.61
2023-05-14T04:28:01.830Z,69.53
2023-05-14T04:33:00.683Z,69.47
2023-05-14T04:37:59.624Z,69.29
2023-05-14T04:42:58.856Z,69.10
2023-05-14T04:47:58.315Z,69.00
2023-05-14T04:52:57.084Z,68.81
2023-05-14T04:57:56.518Z,68.66
2023-05-14T05:02:56.104Z,68.39
2023-05-14T05:07:55.729Z,67.89
2023-05-14T05:12:54.675Z,67.25
2023-05-14T05:17:54.052Z,66.42
2023-05-14T05:22:52.968Z,65.47
2023-05-14T05:27:51.709Z,64.67
2023-05-14T05:32:51.224Z,63.97
2023-05-14T05:37:50.869Z,63.34
2023-05-14T05:42:50.472Z,62.63
2023-05-14T05:47:49.908Z,62.06
2023-05-14T05:52:48.839Z,61.17
2023-05-14T05:57:48.105Z,60.35
2023-05-14T06:02:48.052Z,59.46
2023-05-14T06:07:47.510Z,58.62
2023-05-14T06:12:46.770Z,58.04
2023-05-14T06:17:46.076Z,57.08
2023-05-14T06:22:45.381Z,56.31
2023-05-14T06:27:44.210Z,56.19
2023-05-14T06:32:43.129Z,55.67
2023-05-14T06:37:42.767Z,54.76
2023-05-14T06:42:42.047Z,54.04
2023-05-14T06:47:41.489Z,52.92
2023-05-14T06:52:43.720Z,51.94
2023-05-14T06:57:44.918Z,50.99
2023-05-14T07:02:44.419Z,49.40
2023-05-14T07:07:43.450Z,47.86
2023-05-14T07:12:41.968Z,47.76
2023-05-14T07:17:41.276Z,45.61
2023-05-14T07:22:41.465Z,44.70
2023-05-14T07:27:40.658Z,43.49
2023-05-14T07:32:40.122Z,42.78
2023-05-14T07:37:39.178Z,41.80
2023-05-14T07:42:38.988Z,41.03
2023-05-14T07:47:37.741Z,39.69
2023-05-14T07:52:37.273Z,38.51
2023-05-14T07:57:37.531Z,37.21
2023-05-14T08:02:37.383Z,36.51
2023-05-14T08:07:38.001Z,35.57
2023-05-14T08:12:37.563Z,35.30
2023-05-14T08:17:36.776Z,35.19
2023-05-14T08:22:35.757Z,34.59
2023-05-14T08:27:35.354Z,34.17
2023-05-14T08:32:34.719Z,34.13
2023-05-14T08:37:34.262Z,34.17
2023-05-14T08:42:33.962Z,33.81
2023-05-14T08:47:35.085Z,32.82
2023-05-14T08:52:35.130Z,32.26
2023-05-14T08:57:36.262Z,32.44
2023-05-14T09:02:37.353Z,32.10
2023-05-14T09:07:36.811Z,31.27
2023-05-14T09:12:36.264Z,31.60
2023-05-14T09:17:37.039Z,32.12
2023-05-14T09:22:37.323Z,32.15
2023-05-14T09:27:37.901Z,31.71
2023-05-14T09:32:46.144Z,30.48
2023-05-14T09:37:49.393Z,29.87
2023-05-14T09:42:49.434Z,29.30
2023-05-14T09:47:48.797Z,29.33
2023-05-14T09:52:47.953Z,29.18
2023-05-14T09:57:47.023Z,29.52
2023-05-14T10:02:49.419Z,28.75
2023-05-14T10:07:54.892Z,28.23
2023-05-14T10:13:04.508Z,27.55
2023-05-14T10:18:11.340Z,27.27
2023-05-14T10:23:11.609Z,27.33
2023-05-14T10:28:11.718Z,27.55
2023-05-14T10:33:18.903Z,27.02
2023-05-14T10:38:23.306Z,27.36
2023-05-14T10:43:22.663Z,27.07
2023-05-14T10:48:21.768Z,26.32
2023-05-14T10:53:22.484Z,25.82
2023-05-14T10:58:23.038Z,25.64
2023-05-14T11:03:24.592Z,25.49
2023-05-14T11:08:29.394Z,26.35
2023-05-14T11:13:31.431Z,25.83
2023-05-14T11:18:38.899Z,25.24
2023-05-14T11:23:39.087Z,25.61
2023-05-14T11:28:38.856Z,25.18
2023-05-14T11:33:38.831Z,24.44
2023-05-14T11:38:47.498Z,23.19
2023-05-14T11:43:47.636Z,23.15
2023-05-14T11:48:46.954Z,23.47
2023-05-14T11:53:46.632Z,23.43
2023-05-14T11:58:51.384Z,22.89
2023-05-14T12:03:51.657Z,21.94
2023-05-14T12:08:52.873Z,21.86
2023-05-14T12:13:52.329Z,22.33
2023-05-14T12:18:51.393Z,22.13
2023-05-14T12:23:58.224Z,22.27
2023-05-14T12:29:03.601Z,22.24
2023-05-14T12:34:03.916Z,21.95
2023-05-14T12:39:07.263Z,21.19
2023-05-14T12:44:08.988Z,21.36
2023-05-14T12:49:08.450Z,21.22
2023-05-14T12:54:07.494Z,20.97
2023-05-14T12:59:06.850Z,20.72
2023-05-14T13:04:08.155Z,20.34
2023-05-14T13:09:07.238Z,20.05
2023-05-14T13:14:06.893Z,20.00
2023-05-14T13:19:06.109Z,20.34
2023-05-14T13:24:05.414Z,20.46
2023-05-14T13:29:05.106Z,20.22
2023-05-14T13:34:04.354Z,19.53
2023-05-14T13:39:03.908Z,18.97
2023-05-14T13:44:03.521Z,18.91
2023-05-14T13:49:02.258Z,18.06
2023-05-14T13:54:01.456Z,17.86
2023-05-14T13:59:03.593Z,17.70
2023-05-14T14:04:03.568Z,17.56
2023-05-14T14:09:02.855Z,17.23
2023-05-14T14:14:02.013Z,16.91
2023-05-14T14:19:01.267Z,16.85
2023-05-14T14:24:00.285Z,17.20
2023-05-14T14:28:59.670Z,17.75
2023-05-14T14:33:58.758Z,18.11
2023-05-14T14:38:58.241Z,18.63
2023-05-14T14:43:57.552Z,18.80
2023-05-14T14:48:56.659Z,18.33
2023-05-14T14:53:55.578Z,18.06
2023-05-14T14:58:55.414Z,18.05
2023-05-14T15:03:55.067Z,18.57
2023-05-14T15:08:54.235Z,18.66
2023-05-14T15:13:53.239Z,17.93
2023-05-14T15:18:52.729Z,17.66
2023-05-14T15:23:52.013Z,17.18
2023-05-14T15:28:51.151Z,16.35
2023-05-14T15:33:52.474Z,15.72
2023-05-14T15:38:51.769Z,15.34
2023-05-14T15:43:51.622Z,15.09
2023-05-14T15:48:50.217Z,14.69
2023-05-14T15:53:50.196Z,14.56
2023-05-14T15:58:49.388Z,14.82
2023-05-14T16:03:48.696Z,15.32
2023-05-14T16:08:48.411Z,15.93
2023-05-14T16:13:47.599Z,16.62
2023-05-14T16:18:47.591Z,17.00
2023-05-14T16:23:47.196Z,17.25
2023-05-14T16:28:46.419Z,17.90
2023-05-14T16:33:45.337Z,18.44
2023-05-14T16:39:05.353Z,18.39
2023-05-14T16:44:04.447Z,17.75
2023-05-14T16:49:03.990Z,17.35
2023-05-14T16:54:03.113Z,17.25
2023-05-14T16:59:02.132Z,16.76
2023-05-14T17:04:02.886Z,16.17
2023-05-14T17:09:02.384Z,16.02
2023-05-14T17:14:01.648Z,15.89
2023-05-14T17:18:59.451Z,16.27
2023-05-14T17:23:58.850Z,16.91
2023-05-14T17:28:58.612Z,17.84
2023-05-14T17:34:00.022Z,18.50
2023-05-14T17:39:01.529Z,19.40
2023-05-14T17:44:00.882Z,20.37
2023-05-14T17:48:59.833Z,21.18
2023-05-14T17:53:59.178Z,22.07
2023-05-14T17:58:58.548Z,22.95
2023-05-14T18:03:58.002Z,23.80
2023-05-14T18:08:57.474Z,24.58
2023-05-14T18:13:56.416Z,25.33
2023-05-14T18:18:56.424Z,25.95
2023-05-14T18:23:56.178Z,26.70
2023-05-14T18:28:55.620Z,27.33
2023-05-14T18:33:54.723Z,27.98
2023-05-14T18:38:53.527Z,28.56
2023-05-14T18:43:52.856Z,28.99
2023-05-14T18:48:52.242Z,29.53
2023-05-14T18:53:51.720Z,30.07
2023-05-14T18:58:51.106Z,30.55
2023-05-14T19:03:50.332Z,30.98
2023-05-14T19:08:50.581Z,31.42
2023-05-14T19:13:49.917Z,32.00
2023-05-14T19:18:49.333Z,32.54
2023-05-14T19:23:49.971Z,33.06
2023-05-14T19:28:49.151Z,33.58
2023-05-14T19:33:48.806Z,34.07
2023-05-14T19:38:48.584Z,34.58
2023-05-14T19:43:47.625Z,35.08
2023-05-14T19:48:48.690Z,35.60
2023-05-14T19:53:47.819Z,35.97
2023-05-14T19:58:47.556Z,36.37
2023-05-14T20:03:47.388Z,36.85
2023-05-14T20:08:46.709Z,37.26
2023-05-14T20:13:48.776Z,37.68
2023-05-14T20:18:48.930Z,38.06
2023-05-14T20:23:48.499Z,38.47
2023-05-14T20:28:48.430Z,38.85
2023-05-14T20:33:47.967Z,39.13
2023-05-14T20:38:47.894Z,39.54
2023-05-14T20:43:47.534Z,39.87
2023-05-14T20:48:48.449Z,40.38
2023-05-14T20:53:49.094Z,40.76
2023-05-14T20:58:49.084Z,41.08
2023-05-14T21:03:48.589Z,41.55
2023-05-14T21:08:48.799Z,41.92
2023-05-14T21:13:49.272Z,42.69
2023-05-14T21:18:48.219Z,43.23
2023-05-14T21:23:47.796Z,43.61
2023-05-14T21:28:47.404Z,43.92
2023-05-14T21:33:49.304Z,43.97
2023-05-14T21:38:48.515Z,43.89
2023-05-14T21:43:48.445Z,43.78
2023-05-14T21:48:47.860Z,43.86
2023-05-14T21:53:48.489Z,44.03
2023-05-14T21:58:48.899Z,44.11
2023-05-14T22:03:48.529Z,44.26
2023-05-14T22:08:47.784Z,44.37
2023-05-14T22:13:48.226Z,44.47
2023-05-14T22:18:47.527Z,44.63
2023-05-14T22:23:49.175Z,44.95
2023-05-14T22:28:49.718Z,45.19
2023-05-14T22:33:48.893Z,45.17
2023-05-14T22:38:47.561Z,45.01
2023-05-14T22:43:48.838Z,45.06
2023-05-14T22:48:49.295Z,45.06
2023-05-14T22:53:48.868Z,45.01
2023-05-14T22:58:48.155Z,44.96
2023-05-14T23:03:47.965Z,44.90
2023-05-14T23:08:47.224Z,44.94
2023-05-14T23:13:46.294Z,44.90
2023-05-14T23:18:45.825Z,44.72
2023-05-14T23:23:45.624Z,44.69
2023-05-14T23:28:44.349Z,44.78
2023-05-14T23:33:44.780Z,44.90
2023-05-14T23:38:44.579Z,44.94
2023-05-14T23:43:44.207Z,44.97
2023-05-14T23:48:43.578Z,44.90
2023-05-14T23:53:42.387Z,45.03
2023-05-14T23:58:41.658Z,45.10
